| time (UTC) | temp F | wind direction | speed MPH | gust MPH | rain 1hr in | rain 24hr in | rain mn in | humidity % | barometer mb |
| 20260507101507 | 50 | 274 | 13.0 | 25.0 | 0.00 | 0.09 | 0.09 | 83 | 1021.4 |
| 20260507100002 | 49 | 272 | 10.0 | 21.0 | 0.00 | 0.09 | 0.09 | 84 | 1021.7 |
| 20260507094500 | 50 | 271 | 12.0 | 23.0 | 0.00 | 0.09 | 0.09 | 83 | 1021.8 |
| 20260507093100 | 49 | 274 | 7.0 | 22.0 | 0.00 | 0.09 | 0.09 | 83 | 1021.9 |
| 20260507091635 | 50 | 268 | 9.0 | 25.0 | 0.00 | 0.09 | 0.09 | 83 | 1021.8 |
| 20260507090059 | 50 | 269 | 10.0 | 18.0 | 0.00 | 0.09 | 0.09 | 81 | 1021.8 |
| 20260507084610 | 50 | 262 | 9.0 | 16.0 | 0.00 | 0.09 | 0.09 | 80 | 1021.8 |
| 20260507083058 | 50 | 256 | 10.0 | 19.0 | 0.00 | 0.09 | 0.09 | 77 | 1021.5 |
| 20260507081601 | 51 | 224 | 11.0 | 22.0 | 0.00 | 0.09 | 0.09 | 72 | 1021.6 |
| 20260507080058 | 51 | 248 | 9.0 | 20.0 | 0.00 | 0.09 | 0.09 | 70 | 1021.5 |
| 20260507074600 | 52 | 276 | 11.0 | 20.0 | 0.00 | 0.09 | 0.09 | 70 | 1021.3 |
| 20260507073057 | 52 | 245 | 11.0 | 20.0 | 0.00 | 0.09 | 0.09 | 68 | 1021.4 |
| 20260507071554 | 52 | 258 | 8.0 | 19.0 | 0.00 | 0.09 | 0.09 | 70 | 1021.4 |
| 20260507070053 | 52 | 253 | 9.0 | 19.0 | 0.00 | 0.09 | 0.09 | 70 | 1021.4 |
| 20260507064555 | 52 | 251 | 3.0 | 15.0 | 0.00 | 0.09 | 0.09 | 70 | 1021.6 |
| 20260507063053 | 52 | 270 | 9.0 | 18.0 | 0.00 | 0.09 | 0.09 | 69 | 1021.7 |
| 20260507061551 | 53 | 246 | 7.0 | 14.0 | 0.00 | 0.09 | 0.09 | 66 | 1021.6 |
| 20260507060058 | 53 | 251 | 4.0 | 12.0 | 0.00 | 0.09 | 0.09 | 66 | 1021.7 |
| 20260507054550 | 53 | 257 | 4.0 | 14.0 | 0.00 | 0.09 | 0.09 | 65 | 1021.6 |
| 20260507053050 | 53 | 262 | 5.0 | 15.0 | 0.00 | 0.09 | 0.09 | 62 | 1021.7 |
| 20260507051549 | 55 | 243 | 9.0 | 23.0 | 0.00 | 0.09 | 0.09 | 63 | 1021.5 |
| 20260507050048 | 54 | 257 | 7.0 | 18.0 | 0.01 | 0.09 | 0.09 | 68 | 1021.5 |
| 20260507044602 | 53 | 288 | 5.0 | 17.0 | 0.01 | 0.09 | 0.09 | 69 | 1021.4 |
| 20260507043100 | 51 | 273 | 6.0 | 16.0 | 0.01 | 0.09 | 0.09 | 75 | 1021.6 |
| 20260507041544 | 50 | 249 | 3.0 | 13.0 | 0.01 | 0.09 | 0.09 | 77 | 1021.7 |
| 20260507040043 | 53 | 259 | 4.0 | 8.0 | 0.00 | 0.09 | 0.08 | 66 | 1021.9 |
| 20260507034544 | 54 | 259 | 5.0 | 17.0 | 0.00 | 0.09 | 0.08 | 64 | 1021.7 |
| 20260507033041 | 54 | 311 | 5.0 | 16.0 | 0.00 | 0.09 | 0.08 | 64 | 1021.7 |
| 20260507031542 | 53 | 250 | 9.0 | 21.0 | 0.00 | 0.09 | 0.08 | 66 | 1021.9 |
| 20260507030034 | 52 | 270 | 8.0 | 19.0 | 0.00 | 0.09 | 0.08 | 67 | 1021.9 |
| 20260507024533 | 51 | 243 | 5.0 | 11.0 | 0.00 | 0.09 | 0.08 | 71 | 1022.0 |
| 20260507023033 | 52 | 260 | 7.0 | 13.0 | 0.00 | 0.09 | 0.08 | 67 | 1022.2 |
| 20260507021523 | 52 | 240 | 7.0 | 15.0 | 0.01 | 0.09 | 0.08 | 67 | 1022.4 |
| 20260507020027 | 50 | 265 | 2.0 | 14.0 | 0.01 | 0.09 | 0.08 | 71 | 1022.3 |
| 20260507014517 | 48 | 257 | 4.0 | 11.0 | 0.01 | 0.09 | 0.08 | 77 | 1022.5 |
| 20260507013021 | 48 | 250 | 5.0 | 18.0 | 0.01 | 0.09 | 0.08 | 76 | 1022.7 |
| 20260507011518 | 51 | 267 | 7.0 | 23.0 | 0.01 | 0.08 | 0.07 | 69 | 1022.4 |
| 20260507010012 | 49 | 263 | 10.0 | 19.0 | 0.01 | 0.08 | 0.07 | 69 | 1022.2 |
| 20260507004509 | 48 | 252 | 6.0 | 23.0 | 0.01 | 0.08 | 0.07 | 72 | 1022.2 |
| 20260507003006 | 47 | 276 | 9.0 | 17.0 | 0.01 | 0.08 | 0.07 | 76 | 1022.3 |
| 20260507001507 | 46 | 274 | 6.0 | 15.0 | 0.00 | 0.07 | 0.06 | 78 | 1022.2 |
| 20260507000002 | 46 | 276 | 7.0 | 13.0 | 0.00 | 0.07 | 0.06 | 76 | 1022.2 |
| 20260506234603 | 46 | 264 | 6.0 | 19.0 | 0.00 | 0.07 | 0.06 | 77 | 1022.1 |
| 20260506233100 | 46 | 266 | 10.0 | 19.0 | 0.00 | 0.07 | 0.06 | 76 | 1021.9 |
| 20260506231604 | 46 | 309 | 8.0 | 17.0 | 0.00 | 0.07 | 0.06 | 77 | 1021.7 |
| 20260506230104 | 45 | 259 | 6.0 | 16.0 | 0.00 | 0.07 | 0.06 | 79 | 1021.6 |
| 20260506224552 | 44 | 269 | 10.0 | 19.0 | 0.00 | 0.07 | 0.06 | 85 | 1021.6 |
| 20260506223049 | 42 | 278 | 8.0 | 16.0 | 0.00 | 0.07 | 0.06 | 91 | 1021.2 |
| 20260506221603 | 41 | 247 | 7.0 | 14.0 | 0.00 | 0.07 | 0.06 | 91 | 1021.1 |
| 20260506220043 | 41 | 263 | 8.0 | 18.0 | 0.00 | 0.07 | 0.06 | 91 | 1020.7 |
| 20260506214542 | 41 | 251 | 9.0 | 18.0 | 0.00 | 0.07 | 0.06 | 91 | 1020.7 |
| 20260506213040 | 41 | 260 | 11.0 | 17.0 | 0.00 | 0.07 | 0.06 | 91 | 1020.5 |
| 20260506211539 | 41 | 276 | 7.0 | 13.0 | 0.00 | 0.07 | 0.06 | 91 | 1020.3 |
| 20260506210050 | 41 | 257 | 3.0 | 18.0 | 0.00 | 0.07 | 0.06 | 91 | 1020.4 |
| 20260506204535 | 40 | 271 | 10.0 | 19.0 | 0.00 | 0.07 | 0.06 | 91 | 1019.5 |
| 20260506203036 | 40 | 302 | 9.0 | 18.0 | 0.00 | 0.07 | 0.06 | 91 | 1019.3 |
| 20260506201530 | 40 | 250 | 10.0 | 17.0 | 0.00 | 0.07 | 0.06 | 91 | 1019.4 |
| 20260506200031 | 40 | 237 | 9.0 | 14.0 | 0.00 | 0.07 | 0.06 | 91 | 1019.2 |
| 20260506194528 | 40 | 273 | 8.0 | 17.0 | 0.01 | 0.07 | 0.06 | 90 | 1018.9 |
| 20260506193033 | 40 | 273 | 10.0 | 20.0 | 0.03 | 0.07 | 0.06 | 90 | 1018.8 |
| 20260506191524 | 40 | 269 | 8.0 | 15.0 | 0.04 | 0.07 | 0.06 | 90 | 1019.0 |
| 20260506190024 | 40 | 264 | 9.0 | 15.0 | 0.05 | 0.07 | 0.06 | 90 | 1019.0 |
| 20260506184531 | 40 | 262 | 9.0 | 23.0 | 0.04 | 0.06 | 0.06 | 89 | 1019.3 |
| 20260506183017 | 41 | 246 | 9.0 | 18.0 | 0.02 | 0.04 | 0.03 | 88 | 1019.1 |
| 20260506181514 | 42 | 257 | 5.0 | 14.0 | 0.01 | 0.03 | 0.02 | 80 | 1019.1 |
| 20260506180011 | 43 | 245 | 6.0 | 17.0 | 0.00 | 0.02 | 0.02 | 77 | 1018.7 |
| 20260506174510 | 43 | 269 | 8.0 | 16.0 | 0.00 | 0.02 | 0.02 | 77 | 1018.3 |
| 20260506173008 | 42 | 285 | 10.0 | 19.0 | 0.00 | 0.02 | 0.02 | 77 | 1017.8 |
| 20260506171506 | 42 | 283 | 9.0 | 18.0 | 0.00 | 0.02 | 0.02 | 79 | 1018.0 |
| 20260506170004 | 43 | 283 | 10.0 | 17.0 | 0.00 | 0.02 | 0.02 | 77 | 1018.5 |
| 20260506164513 | 43 | 279 | 10.0 | 22.0 | 0.00 | 0.02 | 0.02 | 77 | 1018.5 |
| 20260506163006 | 43 | 252 | 10.0 | 20.0 | 0.01 | 0.02 | 0.02 | 77 | 1018.5 |
| 20260506161600 | 43 | 254 | 10.0 | 20.0 | 0.01 | 0.02 | 0.02 | 76 | 1018.6 |
| 20260506160127 | 43 | 260 | 14.0 | 29.0 | 0.01 | 0.02 | 0.02 | 75 | 1018.4 |
| 20260506154557 | 43 | 265 | 9.0 | 21.0 | 0.01 | 0.02 | 0.02 | 79 | 1018.5 |
| 20260506153055 | 42 | 263 | 7.0 | 12.0 | 0.00 | 0.02 | 0.01 | 82 | 1018.2 |
| 20260506151555 | 42 | 255 | 7.0 | 12.0 | 0.00 | 0.02 | 0.01 | 82 | 1018.6 |
| 20260506144550 | 44 | 275 | 7.0 | 17.0 | 0.01 | 0.02 | 0.01 | 75 | 1018.2 |
| 20260506143049 | 43 | 248 | 8.0 | 20.0 | 0.01 | 0.02 | 0.01 | 80 | 1018.3 |
| 20260506141547 | 43 | 255 | 5.0 | 16.0 | 0.01 | 0.02 | 0.01 | 82 | 1018.5 |
| 20260506140043 | 44 | 251 | 5.0 | 17.0 | 0.00 | 0.01 | 0.00 | 79 | 1018.5 |
| 20260506134539 | 45 | 253 | 4.0 | 12.0 | 0.00 | 0.01 | 0.00 | 76 | 1018.1 |
| 20260506133049 | 44 | 262 | 5.0 | 19.0 | 0.00 | 0.01 | 0.00 | 75 | 1017.9 |
| 20260506131533 | 45 | 255 | 7.0 | 15.0 | 0.00 | 0.01 | 0.00 | 73 | 1017.5 |
| 20260506130030 | 45 | 265 | 13.0 | 26.0 | 0.00 | 0.01 | 0.00 | 73 | 1017.4 |
| 20260506124529 | 45 | 259 | 14.0 | 26.0 | 0.00 | 0.01 | 0.01 | 75 | 1017.1 |
| 20260506123029 | 45 | 272 | 13.0 | 26.0 | 0.00 | 0.01 | 0.01 | 77 | 1017.1 |
| 20260506121525 | 45 | 266 | 14.0 | 25.0 | 0.00 | 0.01 | 0.01 | 76 | 1017.3 |
| 20260506120046 | 46 | 274 | 11.0 | 21.0 | 0.00 | 0.01 | 0.01 | 74 | 1017.5 |
| 20260506114520 | 48 | 257 | 14.0 | 27.0 | 0.00 | 0.01 | 0.01 | 71 | 1017.7 |
| 20260506113018 | 48 | 257 | 11.0 | 21.0 | 0.00 | 0.01 | 0.01 | 78 | 1017.3 |
| 20260506111516 | 48 | 274 | 9.0 | 18.0 | 0.00 | 0.01 | 0.01 | 82 | 1017.0 |
| 20260506110015 | 47 | 285 | 12.0 | 20.0 | 0.01 | 0.01 | 0.01 | 90 | 1016.8 |
| 20260506104526 | 47 | 254 | 10.0 | 19.0 | 0.01 | 0.01 | 0.01 | 90 | 1016.7 |
| 20260506103030 | 47 | 280 | 9.0 | 18.0 | 0.01 | 0.01 | 0.01 | 90 | 1016.8 |